Time;durP1;ratioP1;P1;durP2;ratioP2;P2;SDS_P1;SDS_P2;PMS_P1;PMS_P2;Temp;Humidity;BMP_temperature;BMP_pressure;BME280_temperature;BME280_humidity;BME280_pressure;Samples;Min_cycle;Max_cycle;Signal;HPM_P1;HPM_P2
2023/08/09 00:00:07;;;;;;;;;2.00;2.00;;;;;;;;5112711;27;8848;-67
2023/08/09 00:02:33;;;;;;;;;2.00;2.00;;;;;;;;5131948;27;8801;-66
2023/08/09 00:04:58;;;;;;;;;3.00;1.00;;;;;;;;5131045;27;9153;-67
2023/08/09 00:07:23;;;;;;;;;1.00;1.00;;;;;;;;5130838;27;9512;-68
2023/08/09 00:09:48;;;;;;;;;1.00;1.00;;;;;;;;5131055;27;8851;-68
2023/08/09 00:12:14;;;;;;;;;1.00;1.00;;;;;;;;5130963;27;9736;-68
2023/08/09 00:14:39;;;;;;;;;2.67;2.00;;;;;;;;5130814;27;8808;-68
2023/08/09 00:17:04;;;;;;;;;1.00;1.00;;;;;;;;5131026;27;8778;-67
2023/08/09 00:19:30;;;;;;;;;0.67;0.67;;;;;;;;5130920;27;9524;-67
2023/08/09 00:21:55;;;;;;;;;2.00;1.33;;;;;;;;5131142;27;8843;-67
2023/08/09 00:24:20;;;;;;;;;1.00;1.00;;;;;;;;5130929;27;8782;-67
2023/08/09 00:26:46;;;;;;;;;3.00;2.00;;;;;;;;5130891;27;8802;-68
2023/08/09 00:29:11;;;;;;;;;1.00;1.00;;;;;;;;5130709;27;8782;-68
2023/08/09 00:31:36;;;;;;;;;2.67;1.00;;;;;;;;5130586;27;8786;-68
2023/08/09 00:34:02;;;;;;;;;1.00;1.00;;;;;;;;5130816;27;8766;-68
2023/08/09 00:36:28;;;;;;;;;1.67;1.67;;;;;;;;5130974;27;8833;-68
2023/08/09 00:38:53;;;;;;;;;1.00;1.00;;;;;;;;5130785;27;8872;-68
2023/08/09 00:41:19;;;;;;;;;1.00;1.00;;;;;;;;5130716;27;9504;-68
2023/08/09 00:43:44;;;;;;;;;1.00;1.00;;;;;;;;5130553;27;8794;-68
2023/08/09 00:46:09;;;;;;;;;1.00;1.00;;;;;;;;5130676;27;8774;-68
2023/08/09 00:48:35;;;;;;;;;1.00;1.00;;;;;;;;5130286;27;8770;-67
2023/08/09 00:51:00;;;;;;;;;1.25;1.25;;;;;;;;5111977;27;8797;-67
2023/08/09 00:53:26;;;;;;;;;2.00;1.00;;;;;;;;5130527;27;9524;-67
2023/08/09 00:55:51;;;;;;;;;2.00;2.00;;;;;;;;5130605;27;8911;-67
2023/08/09 00:58:16;;;;;;;;;1.00;1.00;;;;;;;;5130366;27;9524;-67
2023/08/09 01:00:42;;;;;;;;;2.00;2.00;;;;;;;;5130913;27;8985;-67
2023/08/09 01:03:07;;;;;;;;;0.00;0.00;;;;;;;;5130650;27;8801;-68
2023/08/09 01:05:36;;;;;;;;;2.00;2.00;;;;;;;;5130367;27;8810;-68
2023/08/09 01:08:07;;;;;;;;;2.25;1.75;;;;;;;;5130607;27;9597;-68
2023/08/09 01:10:40;;;;;;;;;3.00;1.00;;;;;;;;5130613;27;9488;-68
2023/08/09 01:13:06;;;;;;;;;1.00;1.00;;;;;;;;5130284;27;9633;-68
2023/08/09 01:15:36;;;;;;;;;1.00;1.00;;;;;;;;5130426;27;9623;-68
2023/08/09 01:18:02;;;;;;;;;1.75;1.75;;;;;;;;5130334;27;9094;-68
2023/08/09 01:20:28;;;;;;;;;1.00;1.00;;;;;;;;5134080;27;9557;-68
2023/08/09 01:23:01;;;;;;;;;1.00;1.00;;;;;;;;5134249;27;9579;-68
2023/08/09 01:25:27;;;;;;;;;0.50;0.50;;;;;;;;5134283;27;8816;-68
2023/08/09 01:27:52;;;;;;;;;1.00;1.00;;;;;;;;5134165;27;9690;-68
2023/08/09 01:30:17;;;;;;;;;3.00;1.25;;;;;;;;5134065;27;8908;-68
2023/08/09 01:32:43;;;;;;;;;1.00;1.00;;;;;;;;5133912;27;8909;-68
2023/08/09 01:35:09;;;;;;;;;2.00;1.00;;;;;;;;5134175;27;8808;-68
2023/08/09 01:37:37;;;;;;;;;2.00;2.00;;;;;;;;5133999;27;8822;-67
2023/08/09 01:40:11;;;;;;;;;1.00;1.00;;;;;;;;5134102;27;8782;-67
2023/08/09 01:42:38;;;;;;;;;1.00;1.00;;;;;;;;5133363;27;9802;-67
2023/08/09 01:45:05;;;;;;;;;1.00;1.00;;;;;;;;5133217;27;9819;-67
2023/08/09 01:47:30;;;;;;;;;1.00;1.00;;;;;;;;5133298;27;9893;-67
2023/08/09 01:49:56;;;;;;;;;1.00;1.00;;;;;;;;5133350;27;9957;-68
2023/08/09 01:52:21;;;;;;;;;1.00;1.00;;;;;;;;5114957;27;8822;-68
2023/08/09 01:54:46;;;;;;;;;2.00;1.00;;;;;;;;5133295;27;8785;-69
2023/08/09 01:57:12;;;;;;;;;1.00;1.00;;;;;;;;5114905;27;8778;-69
2023/08/09 01:59:37;;;;;;;;;1.25;1.25;;;;;;;;5132799;27;8801;-69
2023/08/09 02:02:03;;;;;;;;;1.00;1.00;;;;;;;;5133268;27;8806;-69
2023/08/09 02:04:28;;;;;;;;;1.25;1.25;;;;;;;;5133097;27;9657;-69
2023/08/09 02:06:54;;;;;;;;;1.00;1.00;;;;;;;;5132802;27;9662;-68
2023/08/09 02:09:19;;;;;;;;;1.75;1.00;;;;;;;;5132960;27;8782;-69
2023/08/09 02:11:44;;;;;;;;;2.00;1.00;;;;;;;;5132746;27;8777;-69
2023/08/09 02:14:09;;;;;;;;;2.00;2.00;;;;;;;;5132616;27;8819;-70
2023/08/09 02:16:35;;;;;;;;;1.75;1.75;;;;;;;;5133031;27;8871;-69
2023/08/09 02:19:01;;;;;;;;;0.00;0.00;;;;;;;;5132884;27;8766;-69
2023/08/09 02:21:26;;;;;;;;;1.00;1.00;;;;;;;;5114233;27;8786;-69
2023/08/09 02:23:52;;;;;;;;;3.00;1.50;;;;;;;;5132719;27;8790;-70
2023/08/09 02:26:18;;;;;;;;;2.00;2.00;;;;;;;;5132771;27;8820;-70
2023/08/09 02:28:44;;;;;;;;;1.00;1.00;;;;;;;;5135708;27;8790;-69
2023/08/09 02:31:10;;;;;;;;;1.00;1.00;;;;;;;;5132923;27;10716;-70
2023/08/09 02:33:36;;;;;;;;;2.25;1.50;;;;;;;;5134936;27;8906;-69
2023/08/09 02:36:02;;;;;;;;;3.00;1.00;;;;;;;;5114341;27;10258;-70
2023/08/09 02:38:28;;;;;;;;;1.25;1.00;;;;;;;;5132947;27;8805;-69
2023/08/09 02:40:54;;;;;;;;;1.00;1.00;;;;;;;;5115272;27;8802;-70
2023/08/09 02:43:20;;;;;;;;;1.00;1.00;;;;;;;;5132352;27;10189;-70
2023/08/09 02:45:46;;;;;;;;;2.75;1.00;;;;;;;;5132915;27;8880;-69
2023/08/09 02:48:11;;;;;;;;;2.00;1.00;;;;;;;;5132944;27;8816;-70
2023/08/09 02:50:36;;;;;;;;;3.00;1.75;;;;;;;;5133344;27;8866;-70
2023/08/09 02:53:03;;;;;;;;;1.00;1.00;;;;;;;;5132271;27;8891;-69
2023/08/09 02:55:29;;;;;;;;;1.00;1.00;;;;;;;;5132370;27;8766;-70
2023/08/09 02:57:54;;;;;;;;;1.00;1.00;;;;;;;;5131998;27;10195;-69
2023/08/09 03:00:19;;;;;;;;;0.50;0.50;;;;;;;;5132119;27;10974;-69
2023/08/09 03:02:45;;;;;;;;;1.00;1.00;;;;;;;;5132354;27;8790;-70
2023/08/09 03:05:10;;;;;;;;;1.00;1.00;;;;;;;;5132336;27;8794;-69
2023/08/09 03:07:36;;;;;;;;;0.50;0.50;;;;;;;;5132349;27;8810;-69
2023/08/09 03:10:03;;;;;;;;;1.00;0.50;;;;;;;;5132302;27;8782;-69
2023/08/09 03:12:28;;;;;;;;;1.00;1.00;;;;;;;;5132127;27;8809;-70
2023/08/09 03:14:53;;;;;;;;;1.00;1.00;;;;;;;;5131892;27;10269;-70
2023/08/09 03:17:19;;;;;;;;;1.25;0.50;;;;;;;;5132224;27;8793;-69
2023/08/09 03:19:44;;;;;;;;;0.25;0.25;;;;;;;;5132347;27;8870;-69
2023/08/09 03:22:09;;;;;;;;;1.00;1.00;;;;;;;;5132094;27;8805;-70
2023/08/09 03:24:36;;;;;;;;;1.75;1.00;;;;;;;;5131885;27;8855;-70
2023/08/09 03:27:01;;;;;;;;;1.00;1.00;;;;;;;;5131960;27;8873;-71
2023/08/09 03:29:27;;;;;;;;;2.75;2.00;;;;;;;;5131310;27;10443;-70
2023/08/09 03:31:52;;;;;;;;;0.50;0.50;;;;;;;;5131256;27;8822;-71
2023/08/09 03:34:17;;;;;;;;;1.00;1.00;;;;;;;;5131376;27;8790;-70
2023/08/09 03:36:42;;;;;;;;;1.50;1.00;;;;;;;;5131613;27;9418;-69
2023/08/09 03:39:08;;;;;;;;;2.00;1.00;;;;;;;;5131935;27;8778;-70
2023/08/09 03:41:33;;;;;;;;;1.00;1.00;;;;;;;;5131042;27;8916;-69
2023/08/09 03:43:58;;;;;;;;;1.00;1.00;;;;;;;;5131654;27;8754;-68
2023/08/09 03:46:23;;;;;;;;;1.00;1.00;;;;;;;;5131492;27;8785;-69
2023/08/09 03:48:49;;;;;;;;;2.00;1.00;;;;;;;;5131486;27;8869;-69
2023/08/09 05:55:43;;;;;;;;;0.00;0.00;;;;;;;;5104759;27;13385;-69
2023/08/09 05:58:09;;;;;;;;;2.75;1.00;;;;;;;;5107427;28;10747;-67
2023/08/09 06:00:34;;;;;;;;;0.00;0.00;;;;;;;;5107578;28;8945;-67
2023/08/09 06:03:00;;;;;;;;;1.00;0.00;;;;;;;;5107650;28;8824;-67
2023/08/09 06:05:25;;;;;;;;;1.00;0.00;;;;;;;;5107551;28;8799;-65
2023/08/09 06:07:51;;;;;;;;;2.25;1.00;;;;;;;;5106072;28;10466;-64
2023/08/09 06:10:16;;;;;;;;;2.00;2.00;;;;;;;;5107529;28;8791;-65
2023/08/09 06:12:42;;;;;;;;;0.75;0.75;;;;;;;;5107404;28;8803;-65
2023/08/09 06:15:07;;;;;;;;;0.50;0.00;;;;;;;;5107138;28;8815;-65
2023/08/09 06:17:33;;;;;;;;;0.50;0.00;;;;;;;;5107373;28;8772;-65
2023/08/09 06:19:59;;;;;;;;;0.00;0.00;;;;;;;;5107190;28;8780;-66
2023/08/09 06:22:24;;;;;;;;;5.00;4.50;;;;;;;;5105793;28;9554;-65
2023/08/09 06:24:49;;;;;;;;;2.00;2.00;;;;;;;;5107150;28;8880;-65
2023/08/09 06:27:15;;;;;;;;;3.00;2.00;;;;;;;;5107194;28;9568;-65
2023/08/09 06:29:40;;;;;;;;;3.25;3.00;;;;;;;;5106982;28;8799;-66
2023/08/09 06:32:05;;;;;;;;;4.00;4.00;;;;;;;;5106941;28;8772;-66
2023/08/09 06:34:30;;;;;;;;;3.75;1.00;;;;;;;;5106978;28;8819;-65
2023/08/09 06:36:56;;;;;;;;;3.00;3.00;;;;;;;;5106892;28;8772;-65
2023/08/09 06:39:21;;;;;;;;;2.25;2.25;;;;;;;;5106941;28;8876;-65
2023/08/09 06:41:48;;;;;;;;;1.25;1.25;;;;;;;;5106848;28;8768;-65
2023/08/09 06:44:13;;;;;;;;;1.00;1.00;;;;;;;;5106596;28;8880;-66
2023/08/09 06:46:39;;;;;;;;;2.00;2.00;;;;;;;;5106665;28;9845;-67
2023/08/09 06:49:04;;;;;;;;;0.00;0.00;;;;;;;;5106755;28;8811;-67
2023/08/09 06:51:29;;;;;;;;;1.25;1.25;;;;;;;;5106350;28;8943;-66
2023/08/09 06:53:55;;;;;;;;;1.00;1.00;;;;;;;;5106268;28;8824;-66
2023/08/09 06:56:20;;;;;;;;;1.00;1.00;;;;;;;;5106795;28;8834;-65
2023/08/09 06:58:45;;;;;;;;;1.00;1.00;;;;;;;;5106651;28;8796;-65
2023/08/09 07:01:11;;;;;;;;;0.00;0.00;;;;;;;;5106907;28;8803;-64
2023/08/09 07:03:37;;;;;;;;;1.75;0.00;;;;;;;;5106342;28;8896;-65
2023/08/09 07:06:03;;;;;;;;;2.25;1.00;;;;;;;;5098757;28;8804;-66
2023/08/09 07:08:28;;;;;;;;;2.00;1.00;;;;;;;;5093122;28;9025;-66
2023/08/09 07:10:55;;;;;;;;;1.00;1.00;;;;;;;;5092647;28;9981;-66
2023/08/09 07:13:20;;;;;;;;;0.00;0.00;;;;;;;;5092648;28;8796;-65
2023/08/09 07:15:46;;;;;;;;;1.00;1.00;;;;;;;;5092701;28;9928;-67
2023/08/09 07:18:11;;;;;;;;;0.00;0.00;;;;;;;;5092490;28;8969;-68
2023/08/09 07:20:36;;;;;;;;;1.50;0.25;;;;;;;;5092629;28;8877;-65
2023/08/09 07:23:02;;;;;;;;;2.00;2.00;;;;;;;;5092613;28;8930;-65
2023/08/09 07:25:27;;;;;;;;;1.75;1.75;;;;;;;;5092499;28;8895;-65
2023/08/09 07:27:52;;;;;;;;;2.25;0.50;;;;;;;;5092519;28;8792;-64
2023/08/09 07:30:18;;;;;;;;;1.00;0.00;;;;;;;;5092299;28;8780;-65
2023/08/09 07:32:44;;;;;;;;;4.00;2.00;;;;;;;;5092253;28;8832;-66
2023/08/09 07:35:11;;;;;;;;;1.00;1.00;;;;;;;;5092039;28;8888;-65
2023/08/09 07:37:40;;;;;;;;;0.00;0.00;;;;;;;;5090113;28;8796;-65
2023/08/09 07:40:06;;;;;;;;;0.00;0.00;;;;;;;;5092400;28;10129;-64
2023/08/09 07:42:31;;;;;;;;;1.67;1.00;;;;;;;;5092215;28;9123;-65
2023/08/09 07:44:58;;;;;;;;;1.33;1.00;;;;;;;;5091999;28;9027;-65
2023/08/09 07:47:23;;;;;;;;;0.75;0.75;;;;;;;;5092298;28;8881;-66
2023/08/09 07:49:49;;;;;;;;;1.00;1.00;;;;;;;;5090854;28;8815;-65
2023/08/09 07:52:14;;;;;;;;;2.67;2.67;;;;;;;;5090840;28;8816;-66
2023/08/09 07:54:40;;;;;;;;;1.67;1.00;;;;;;;;5090579;28;8854;-65
2023/08/09 07:57:05;;;;;;;;;2.00;0.33;;;;;;;;5092005;28;8804;-66
2023/08/09 07:59:30;;;;;;;;;0.00;0.00;;;;;;;;5082574;28;8852;-66
2023/08/09 08:01:56;;;;;;;;;1.00;1.00;;;;;;;;5071809;28;8872;-65
2023/08/09 08:04:21;;;;;;;;;1.00;0.33;;;;;;;;5071363;28;8905;-66
2023/08/09 08:06:48;;;;;;;;;2.00;1.00;;;;;;;;5084504;28;8784;-66
2023/08/09 08:09:14;;;;;;;;;1.00;0.00;;;;;;;;5091830;28;8794;-66
2023/08/09 08:11:40;;;;;;;;;1.25;1.25;;;;;;;;5091541;28;8788;-68
2023/08/09 08:14:05;;;;;;;;;2.67;1.00;;;;;;;;5091112;28;8849;-66
2023/08/09 08:16:31;;;;;;;;;1.00;1.00;;;;;;;;5091313;28;8788;-66
2023/08/09 08:18:56;;;;;;;;;3.00;1.00;;;;;;;;5090822;28;8784;-66
2023/08/09 08:21:22;;;;;;;;;2.00;0.00;;;;;;;;5091633;28;9585;-67
2023/08/09 08:23:47;;;;;;;;;1.00;1.00;;;;;;;;5091236;28;8839;-67
2023/08/09 08:26:13;;;;;;;;;1.00;0.00;;;;;;;;5091329;28;8857;-65
2023/08/09 08:28:38;;;;;;;;;0.00;0.00;;;;;;;;5091092;28;8792;-67
2023/08/09 08:31:05;;;;;;;;;0.67;0.67;;;;;;;;5091200;28;8833;-67
2023/08/09 08:33:31;;;;;;;;;2.00;1.50;;;;;;;;5091074;28;8810;-69
2023/08/09 08:35:56;;;;;;;;;5.00;2.00;;;;;;;;5091067;28;9498;-67
2023/08/09 08:38:23;;;;;;;;;0.00;0.00;;;;;;;;5091083;28;8803;-67
2023/08/09 08:40:48;;;;;;;;;1.00;1.00;;;;;;;;5090000;28;8796;-66
2023/08/09 08:43:13;;;;;;;;;2.00;1.00;;;;;;;;5089222;28;8815;-67
2023/08/09 08:45:39;;;;;;;;;0.00;0.00;;;;;;;;5090530;28;8800;-66
2023/08/09 08:48:08;;;;;;;;;0.00;0.00;;;;;;;;5090971;28;8784;-66
2023/08/09 08:50:37;;;;;;;;;0.00;0.00;;;;;;;;5091040;28;8831;-65
2023/08/09 08:53:04;;;;;;;;;0.25;0.00;;;;;;;;5091062;28;8814;-64
2023/08/09 08:55:30;;;;;;;;;0.00;0.00;;;;;;;;5090668;28;8796;-64
2023/08/09 08:57:56;;;;;;;;;1.00;1.00;;;;;;;;5090934;28;8902;-69
2023/08/09 09:00:22;;;;;;;;;0.00;0.00;;;;;;;;5090730;28;8788;-63
2023/08/09 09:02:47;;;;;;;;;1.25;0.50;;;;;;;;5091301;28;8796;-63
2023/08/09 09:05:13;;;;;;;;;0.75;0.00;;;;;;;;5090729;28;8780;-63
2023/08/09 09:07:39;;;;;;;;;0.00;0.00;;;;;;;;5070456;28;8967;-63
2023/08/09 09:10:05;;;;;;;;;0.25;0.00;;;;;;;;5070573;28;8795;-63
2023/08/09 09:12:33;;;;;;;;;1.20;1.20;;;;;;;;5070262;28;8786;-63
2023/08/09 09:14:58;;;;;;;;;1.60;0.40;;;;;;;;5069892;28;8821;-63
2023/08/09 09:17:25;;;;;;;;;0.00;0.00;;;;;;;;5070184;28;8801;-64
2023/08/09 09:19:50;;;;;;;;;3.00;0.00;;;;;;;;5070170;28;8802;-64
2023/08/09 09:22:28;;;;;;;;;2.00;0.25;;;;;;;;5069985;28;8799;-64
2023/08/09 09:25:01;;;;;;;;;0.60;0.60;;;;;;;;5070048;28;8881;-64
2023/08/09 09:27:31;;;;;;;;;0.00;0.00;;;;;;;;5069893;28;8782;-64
2023/08/09 09:30:01;;;;;;;;;3.00;3.00;;;;;;;;5069861;28;8876;-66
2023/08/09 09:32:26;;;;;;;;;0.00;0.00;;;;;;;;5070059;28;8775;-66
2023/08/09 09:34:51;;;;;;;;;1.00;1.00;;;;;;;;5069816;28;8835;-67
2023/08/09 09:37:21;;;;;;;;;0.00;0.00;;;;;;;;5087293;28;8790;-66
2023/08/09 09:39:47;;;;;;;;;1.00;1.00;;;;;;;;5086740;28;8918;-66
2023/08/09 09:42:13;;;;;;;;;2.50;1.00;;;;;;;;5089888;28;8915;-67
2023/08/09 09:44:39;;;;;;;;;0.00;0.00;;;;;;;;5089926;28;8784;-67
2023/08/09 09:47:04;;;;;;;;;2.00;2.00;;;;;;;;5089976;28;8796;-67
2023/08/09 09:49:34;;;;;;;;;2.50;2.00;;;;;;;;5089931;28;8772;-67
2023/08/09 09:52:03;;;;;;;;;0.80;0.00;;;;;;;;5089962;28;8827;-66
2023/08/09 09:54:28;;;;;;;;;1.00;0.00;;;;;;;;5089358;28;8827;-66
2023/08/09 09:56:53;;;;;;;;;0.00;0.00;;;;;;;;5089963;28;9447;-66
2023/08/09 09:59:19;;;;;;;;;1.00;1.00;;;;;;;;5089569;28;9526;-65
2023/08/09 10:01:47;;;;;;;;;0.33;0.00;;;;;;;;5089742;28;8860;-66
2023/08/09 10:04:14;;;;;;;;;2.80;2.80;;;;;;;;5089615;28;8791;-67
2023/08/09 10:06:42;;;;;;;;;0.00;0.00;;;;;;;;5089596;28;8783;-68
2023/08/09 10:09:09;;;;;;;;;1.00;0.00;;;;;;;;5089845;28;8894;-68
2023/08/09 10:11:36;;;;;;;;;0.60;0.60;;;;;;;;5089848;28;8788;-67
2023/08/09 10:14:02;;;;;;;;;1.00;1.00;;;;;;;;5088573;28;8808;-67
2023/08/09 10:16:29;;;;;;;;;0.50;0.00;;;;;;;;5087899;28;8828;-68
2023/08/09 10:19:00;;;;;;;;;2.00;2.00;;;;;;;;5088081;28;8812;-67
2023/08/09 10:21:26;;;;;;;;;0.50;0.00;;;;;;;;5089731;28;8840;-66
2023/08/09 10:24:08;;;;;;;;;1.33;1.33;;;;;;;;5089659;28;9522;-65
2023/08/09 10:26:35;;;;;;;;;0.00;0.00;;;;;;;;5088465;28;9664;-65
2023/08/09 10:29:04;;;;;;;;;3.00;2.00;;;;;;;;5089515;28;8783;-65
2023/08/09 10:31:48;;;;;;;;;1.00;1.00;;;;;;;;5097270;28;9544;-65
2023/08/09 10:34:13;;;;;;;;;1.00;0.00;;;;;;;;5109691;28;8813;-69
2023/08/09 10:36:39;;;;;;;;;1.67;1.67;;;;;;;;5089277;28;8804;-68
2023/08/09 10:39:08;;;;;;;;;3.33;3.00;;;;;;;;5089199;28;8963;-66
2023/08/09 10:41:33;;;;;;;;;1.00;0.00;;;;;;;;5091768;28;8781;-65
2023/08/09 10:44:02;;;;;;;;;1.00;1.00;;;;;;;;5092518;28;8847;-67
2023/08/09 10:46:31;;;;;;;;;1.75;0.75;;;;;;;;5092094;28;9635;-65
2023/08/09 10:49:00;;;;;;;;;1.75;1.00;;;;;;;;5091288;28;8783;-67
2023/08/09 10:51:25;;;;;;;;;2.25;1.75;;;;;;;;5093308;28;8922;-66
2023/08/09 10:53:55;;;;;;;;;0.00;0.00;;;;;;;;5092932;28;8956;-67
2023/08/09 10:56:32;;;;;;;;;2.75;1.25;;;;;;;;5093146;28;9555;-66
2023/08/09 10:59:05;;;;;;;;;1.00;1.00;;;;;;;;5092773;28;8781;-66
2023/08/09 11:01:31;;;;;;;;;1.50;1.00;;;;;;;;5092674;28;8832;-67
2023/08/09 11:03:56;;;;;;;;;0.00;0.00;;;;;;;;5092947;28;9532;-67
2023/08/09 11:06:34;;;;;;;;;1.00;1.00;;;;;;;;5083198;28;9543;-66
2023/08/09 11:09:08;;;;;;;;;0.25;0.25;;;;;;;;5072553;28;8784;-68
2023/08/09 11:11:34;;;;;;;;;0.50;0.50;;;;;;;;5072517;28;8773;-70
2023/08/09 11:13:59;;;;;;;;;0.00;0.00;;;;;;;;5072192;28;9487;-66
2023/08/09 11:16:26;;;;;;;;;2.00;2.00;;;;;;;;5072613;28;8796;-66
2023/08/09 11:19:04;;;;;;;;;1.00;1.00;;;;;;;;5072323;28;8968;-66
2023/08/09 11:21:39;;;;;;;;;3.25;2.25;;;;;;;;5072368;28;8772;-66
2023/08/09 11:24:07;;;;;;;;;0.25;0.25;;;;;;;;5072234;28;8863;-66
2023/08/09 11:26:33;;;;;;;;;0.00;0.00;;;;;;;;5072331;28;8789;-66
2023/08/09 11:29:00;;;;;;;;;2.00;2.00;;;;;;;;5072002;28;8921;-65
2023/08/09 11:31:25;;;;;;;;;0.00;0.00;;;;;;;;5072074;28;8909;-66
2023/08/09 11:33:56;;;;;;;;;0.00;0.00;;;;;;;;5071605;28;8824;-66
2023/08/09 11:36:25;;;;;;;;;2.00;2.00;;;;;;;;5069442;28;8780;-66
2023/08/09 11:38:50;;;;;;;;;3.00;3.00;;;;;;;;5071823;28;8788;-72
2023/08/09 11:41:16;;;;;;;;;1.00;1.00;;;;;;;;5071836;28;8833;-72
2023/08/09 11:43:41;;;;;;;;;3.33;2.00;;;;;;;;5071651;28;8776;-72
2023/08/09 11:46:07;;;;;;;;;0.00;0.00;;;;;;;;5071177;28;8780;-66
2023/08/09 11:48:36;;;;;;;;;1.00;1.00;;;;;;;;5071368;28;8923;-66
2023/08/09 11:51:04;;;;;;;;;1.00;1.00;;;;;;;;5071524;28;8808;-66
2023/08/09 11:53:29;;;;;;;;;0.75;0.75;;;;;;;;5073173;28;8807;-66
2023/08/09 11:56:01;;;;;;;;;1.00;1.00;;;;;;;;5092057;28;8808;-67
2023/08/09 11:58:26;;;;;;;;;2.75;1.00;;;;;;;;5091966;28;8776;-67
2023/08/09 12:00:52;;;;;;;;;3.00;3.00;;;;;;;;5091577;28;8834;-67
2023/08/09 12:03:20;;;;;;;;;0.67;0.67;;;;;;;;5091642;28;8772;-65
2023/08/09 12:05:46;;;;;;;;;2.00;1.75;;;;;;;;5091607;28;8818;-68
2023/08/09 12:08:11;;;;;;;;;0.00;0.00;;;;;;;;5091784;28;8788;-68
2023/08/09 12:10:42;;;;;;;;;1.00;1.00;;;;;;;;5091663;28;8795;-67
2023/08/09 12:13:09;;;;;;;;;0.50;0.50;;;;;;;;5091600;28;8768;-66
2023/08/09 12:15:35;;;;;;;;;1.00;1.00;;;;;;;;5091329;28;8937;-66
2023/08/09 12:18:00;;;;;;;;;1.00;1.00;;;;;;;;5080780;28;9111;-67
2023/08/09 12:20:26;;;;;;;;;2.67;2.67;;;;;;;;5071174;28;8790;-67
2023/08/09 12:22:51;;;;;;;;;2.00;1.00;;;;;;;;5071027;28;8881;-65
2023/08/09 12:25:17;;;;;;;;;3.67;2.33;;;;;;;;5070162;28;9552;-65
2023/08/09 12:27:43;;;;;;;;;0.00;0.00;;;;;;;;5069686;28;8821;-66
2023/08/09 12:30:11;;;;;;;;;0.67;0.67;;;;;;;;5081553;28;8832;-66
2023/08/09 12:32:37;;;;;;;;;3.00;0.00;;;;;;;;5091464;28;8799;-66
2023/08/09 12:35:04;;;;;;;;;1.00;0.00;;;;;;;;5091534;28;8831;-66
2023/08/09 12:37:29;;;;;;;;;0.75;0.75;;;;;;;;5089904;28;8811;-66
2023/08/09 12:39:55;;;;;;;;;0.00;0.00;;;;;;;;5091310;28;8803;-65
2023/08/09 12:42:20;;;;;;;;;0.00;0.00;;;;;;;;5091274;28;8803;-65
2023/08/09 12:44:46;;;;;;;;;2.00;2.00;;;;;;;;5090806;28;8858;-64
2023/08/09 12:47:11;;;;;;;;;1.00;1.00;;;;;;;;5091075;28;8886;-64
2023/08/09 12:49:36;;;;;;;;;3.00;1.00;;;;;;;;5090960;28;8804;-64
2023/08/09 12:52:02;;;;;;;;;0.67;0.33;;;;;;;;5090818;28;8831;-64
2023/08/09 12:54:27;;;;;;;;;1.00;1.00;;;;;;;;5086739;28;8816;-64
2023/08/09 12:56:55;;;;;;;;;0.00;0.00;;;;;;;;5090655;28;8922;-65
2023/08/09 12:59:21;;;;;;;;;0.25;0.25;;;;;;;;5088976;28;8808;-66
2023/08/09 13:01:47;;;;;;;;;1.00;1.00;;;;;;;;5090603;28;8938;-65
2023/08/09 13:04:13;;;;;;;;;4.00;0.67;;;;;;;;5089891;28;8887;-64
2023/08/09 13:06:38;;;;;;;;;0.00;0.00;;;;;;;;5090590;28;8816;-64
2023/08/09 13:09:08;;;;;;;;;0.67;0.33;;;;;;;;5090076;28;8792;-64
2023/08/09 13:11:33;;;;;;;;;0.75;0.75;;;;;;;;5090410;28;8904;-64
2023/08/09 13:13:59;;;;;;;;;1.00;1.00;;;;;;;;5088593;28;9651;-64
2023/08/09 13:16:24;;;;;;;;;0.00;0.00;;;;;;;;5088500;28;8780;-65
2023/08/09 13:18:50;;;;;;;;;2.00;0.00;;;;;;;;5089918;28;8811;-65
2023/08/09 13:21:16;;;;;;;;;1.00;1.00;;;;;;;;5089931;28;8832;-65
2023/08/09 13:23:42;;;;;;;;;1.00;1.00;;;;;;;;5089822;28;8807;-66
2023/08/09 13:26:07;;;;;;;;;3.00;2.00;;;;;;;;5089513;28;8811;-69
2023/08/09 13:28:33;;;;;;;;;2.67;2.00;;;;;;;;5090202;28;8941;-67
2023/08/09 13:30:58;;;;;;;;;2.00;1.00;;;;;;;;5089931;28;8894;-67
2023/08/09 13:33:24;;;;;;;;;3.00;2.00;;;;;;;;5089848;28;8857;-66
2023/08/09 13:35:49;;;;;;;;;2.67;1.00;;;;;;;;5089622;28;8828;-66
2023/08/09 13:38:28;;;;;;;;;1.67;1.00;;;;;;;;5089666;28;8820;-66
2023/08/09 13:40:56;;;;;;;;;1.75;1.25;;;;;;;;5089763;28;8865;-67
2023/08/09 13:43:22;;;;;;;;;1.00;1.00;;;;;;;;5089858;28;8779;-68
2023/08/09 13:45:48;;;;;;;;;1.00;1.00;;;;;;;;5089827;28;8815;-67
2023/08/09 13:48:13;;;;;;;;;1.33;1.33;;;;;;;;5088682;28;8784;-67
2023/08/09 13:50:38;;;;;;;;;1.00;1.00;;;;;;;;5090059;28;8891;-68
2023/08/09 13:53:03;;;;;;;;;1.00;1.00;;;;;;;;5090129;28;8792;-68
2023/08/09 13:55:29;;;;;;;;;2.00;2.00;;;;;;;;5088536;28;8839;-68
2023/08/09 13:57:54;;;;;;;;;2.00;1.00;;;;;;;;5089666;28;8819;-68
2023/08/09 14:00:19;;;;;;;;;1.00;1.00;;;;;;;;5089850;28;8799;-66
2023/08/09 14:02:45;;;;;;;;;1.00;1.00;;;;;;;;5089998;28;9559;-65
2023/08/09 14:05:10;;;;;;;;;3.00;3.00;;;;;;;;5090012;28;8908;-65
2023/08/09 14:07:36;;;;;;;;;1.00;1.00;;;;;;;;5090079;28;8850;-65
2023/08/09 14:10:04;;;;;;;;;1.00;1.00;;;;;;;;5092065;28;8886;-65
2023/08/09 14:12:29;;;;;;;;;1.25;1.25;;;;;;;;5098121;28;8885;-65
2023/08/09 14:14:55;;;;;;;;;1.33;1.00;;;;;;;;5098459;28;8837;-64
2023/08/09 14:17:23;;;;;;;;;1.00;1.00;;;;;;;;5104499;28;8798;-63
2023/08/09 14:19:48;;;;;;;;;1.00;0.00;;;;;;;;5106302;28;9524;-63
2023/08/09 14:22:17;;;;;;;;;2.00;1.00;;;;;;;;5104639;28;8870;-64
2023/08/09 14:24:43;;;;;;;;;0.25;0.25;;;;;;;;5100633;28;9661;-65
2023/08/09 14:27:08;;;;;;;;;2.00;1.00;;;;;;;;5102967;28;8786;-64
2023/08/09 14:29:41;;;;;;;;;1.00;1.00;;;;;;;;5103945;28;8894;-64
2023/08/09 14:32:06;;;;;;;;;1.00;1.00;;;;;;;;5103479;28;8792;-64
2023/08/09 14:34:32;;;;;;;;;3.00;1.33;;;;;;;;5102344;28;8936;-64
2023/08/09 14:36:58;;;;;;;;;2.00;1.00;;;;;;;;5104568;28;8789;-65
2023/08/09 14:39:23;;;;;;;;;2.00;2.00;;;;;;;;5102575;28;8772;-64
2023/08/09 14:41:51;;;;;;;;;2.00;2.00;;;;;;;;5102858;28;9550;-63
2023/08/09 14:44:16;;;;;;;;;2.00;2.00;;;;;;;;5103599;28;8805;-68
2023/08/09 14:46:42;;;;;;;;;1.67;1.67;;;;;;;;5101681;28;8796;-67
2023/08/09 14:49:08;;;;;;;;;1.00;1.00;;;;;;;;5100886;28;8861;-63
2023/08/09 14:51:34;;;;;;;;;2.00;2.00;;;;;;;;5102841;28;8777;-62
2023/08/09 14:53:59;;;;;;;;;1.00;1.00;;;;;;;;5101909;28;9604;-62
2023/08/09 14:56:24;;;;;;;;;3.00;1.33;;;;;;;;5103179;28;8825;-62
2023/08/09 14:58:53;;;;;;;;;2.00;2.00;;;;;;;;5103373;28;8907;-65
2023/08/09 15:01:19;;;;;;;;;3.25;2.00;;;;;;;;5099785;28;8783;-66
2023/08/09 15:03:44;;;;;;;;;1.00;1.00;;;;;;;;5103257;28;8833;-67
2023/08/09 15:06:09;;;;;;;;;1.00;1.00;;;;;;;;5103220;28;8780;-64
2023/08/09 15:08:35;;;;;;;;;1.00;1.00;;;;;;;;5102431;28;8819;-66
2023/08/09 15:11:01;;;;;;;;;1.00;1.00;;;;;;;;5102103;28;8888;-64
2023/08/09 15:13:26;;;;;;;;;5.00;4.00;;;;;;;;5101590;28;8793;-64
2023/08/09 15:15:51;;;;;;;;;1.67;1.67;;;;;;;;5103380;28;8813;-64
2023/08/09 15:18:17;;;;;;;;;2.33;1.33;;;;;;;;5100651;28;8796;-64
2023/08/09 15:20:42;;;;;;;;;3.33;2.67;;;;;;;;5102186;28;8904;-64
2023/08/09 15:23:07;;;;;;;;;3.00;1.67;;;;;;;;5100713;28;8912;-63
2023/08/09 15:25:33;;;;;;;;;2.00;2.00;;;;;;;;5098986;28;8793;-64
2023/08/09 15:28:00;;;;;;;;;1.00;1.00;;;;;;;;5093742;28;8796;-63
2023/08/09 15:30:25;;;;;;;;;2.75;2.00;;;;;;;;5091854;28;10935;-64
2023/08/09 15:32:51;;;;;;;;;1.00;1.00;;;;;;;;5090985;28;8802;-64
2023/08/09 15:35:16;;;;;;;;;1.00;1.00;;;;;;;;5091734;28;8908;-63
2023/08/09 15:37:42;;;;;;;;;1.00;1.00;;;;;;;;5091927;28;8869;-63
2023/08/09 15:40:12;;;;;;;;;3.33;2.00;;;;;;;;5091980;28;8764;-63
2023/08/09 15:42:37;;;;;;;;;4.75;3.00;;;;;;;;5092029;28;8768;-64
2023/08/09 15:45:03;;;;;;;;;4.67;4.33;;;;;;;;5091956;28;8807;-64
2023/08/09 15:47:29;;;;;;;;;3.67;2.00;;;;;;;;5092255;28;8796;-64
2023/08/09 15:49:54;;;;;;;;;3.67;3.67;;;;;;;;5092145;28;11457;-64
2023/08/09 15:52:20;;;;;;;;;4.33;2.67;;;;;;;;5092081;28;8792;-64
2023/08/09 15:54:46;;;;;;;;;2.50;2.50;;;;;;;;5091719;28;8842;-65
2023/08/09 15:57:11;;;;;;;;;3.00;2.67;;;;;;;;5091944;28;8788;-64
2023/08/09 15:59:36;;;;;;;;;2.00;2.00;;;;;;;;5091653;28;8772;-64
2023/08/09 16:02:02;;;;;;;;;1.67;1.33;;;;;;;;5091756;28;8818;-64
2023/08/09 16:04:28;;;;;;;;;2.00;2.00;;;;;;;;5091699;28;8968;-64
2023/08/09 16:06:53;;;;;;;;;3.00;2.00;;;;;;;;5091510;28;8827;-64
2023/08/09 16:09:21;;;;;;;;;1.33;1.33;;;;;;;;5091583;28;8784;-65
2023/08/09 16:11:47;;;;;;;;;2.75;2.75;;;;;;;;5091492;28;8772;-63
2023/08/09 16:14:12;;;;;;;;;1.33;1.33;;;;;;;;5091347;28;9570;-63
2023/08/09 16:16:37;;;;;;;;;2.33;1.33;;;;;;;;5081574;28;8858;-63
2023/08/09 16:19:03;;;;;;;;;3.67;2.00;;;;;;;;5071328;28;8873;-63
2023/08/09 16:21:29;;;;;;;;;3.25;1.50;;;;;;;;5071142;28;8840;-63
2023/08/09 16:23:56;;;;;;;;;0.33;0.33;;;;;;;;5071016;28;8905;-63
2023/08/09 16:26:22;;;;;;;;;3.75;3.75;;;;;;;;5070912;28;8779;-63
2023/08/09 16:28:47;;;;;;;;;3.00;3.00;;;;;;;;5071140;28;8865;-63
2023/08/09 16:31:12;;;;;;;;;3.33;1.67;;;;;;;;5070665;28;8799;-63
2023/08/09 16:33:37;;;;;;;;;5.00;4.00;;;;;;;;5071110;28;8783;-63
2023/08/09 16:36:03;;;;;;;;;3.33;2.33;;;;;;;;5077885;28;8877;-64
2023/08/09 16:38:28;;;;;;;;;2.00;2.00;;;;;;;;5090385;28;8845;-64
2023/08/09 16:40:53;;;;;;;;;5.00;3.00;;;;;;;;5088196;28;8796;-62
2023/08/09 16:43:19;;;;;;;;;2.00;2.00;;;;;;;;5090445;28;9696;-62
2023/08/09 16:45:44;;;;;;;;;1.67;1.67;;;;;;;;5090836;28;8903;-63
2023/08/09 16:48:09;;;;;;;;;4.00;4.00;;;;;;;;5090976;28;8768;-63
2023/08/09 16:50:34;;;;;;;;;5.00;5.00;;;;;;;;5089741;28;8828;-63
2023/08/09 16:53:00;;;;;;;;;5.00;5.00;;;;;;;;5089717;28;8788;-65